sensor_id;sensor_type;location;lat;lon;timestamp;P1;durP1;ratioP1;P2;durP2;ratioP2
11761;SDS011;5938;47.098;15.474;2023-02-11T00:00:54;20.70;;;10.97;;
11761;SDS011;5938;47.098;15.474;2023-02-11T00:04:59;16.30;;;8.87;;
11761;SDS011;5938;47.098;15.474;2023-02-11T00:09:05;18.33;;;10.90;;
11761;SDS011;5938;47.098;15.474;2023-02-11T00:13:08;21.20;;;10.93;;
11761;SDS011;5938;47.098;15.474;2023-02-11T00:17:12;21.47;;;12.40;;
11761;SDS011;5938;47.098;15.474;2023-02-11T00:21:17;18.43;;;10.93;;
11761;SDS011;5938;47.098;15.474;2023-02-11T00:25:21;18.50;;;10.03;;
11761;SDS011;5938;47.098;15.474;2023-02-11T00:29:25;17.90;;;9.30;;
11761;SDS011;5938;47.098;15.474;2023-02-11T00:33:28;18.80;;;11.53;;
11761;SDS011;5938;47.098;15.474;2023-02-11T00:37:33;19.67;;;10.80;;
11761;SDS011;5938;47.098;15.474;2023-02-11T00:41:37;20.67;;;12.07;;
11761;SDS011;5938;47.098;15.474;2023-02-11T00:45:40;18.90;;;10.30;;
11761;SDS011;5938;47.098;15.474;2023-02-11T00:49:44;18.80;;;12.87;;
11761;SDS011;5938;47.098;15.474;2023-02-11T00:53:48;20.23;;;9.73;;
11761;SDS011;5938;47.098;15.474;2023-02-11T00:57:52;17.93;;;10.30;;
11761;SDS011;5938;47.098;15.474;2023-02-11T01:01:55;18.60;;;9.80;;
11761;SDS011;5938;47.098;15.474;2023-02-11T01:05:58;15.87;;;9.60;;
11761;SDS011;5938;47.098;15.474;2023-02-11T01:10:04;14.00;;;8.50;;
11761;SDS011;5938;47.098;15.474;2023-02-11T01:14:07;18.07;;;10.80;;
11761;SDS011;5938;47.098;15.474;2023-02-11T01:18:11;15.50;;;9.63;;
11761;SDS011;5938;47.098;15.474;2023-02-11T01:22:14;20.37;;;9.70;;
11761;SDS011;5938;47.098;15.474;2023-02-11T01:26:19;17.20;;;8.97;;
11761;SDS011;5938;47.098;15.474;2023-02-11T01:30:22;16.30;;;8.30;;
11761;SDS011;5938;47.098;15.474;2023-02-11T01:34:25;17.57;;;9.30;;
11761;SDS011;5938;47.098;15.474;2023-02-11T01:38:29;20.20;;;11.17;;
11761;SDS011;5938;47.098;15.474;2023-02-11T01:42:34;20.97;;;10.43;;
11761;SDS011;5938;47.098;15.474;2023-02-11T01:46:37;21.00;;;9.20;;
11761;SDS011;5938;47.098;15.474;2023-02-11T01:50:41;25.70;;;12.07;;
11761;SDS011;5938;47.098;15.474;2023-02-11T01:54:46;18.53;;;11.40;;
11761;SDS011;5938;47.098;15.474;2023-02-11T01:59:14;23.37;;;12.40;;
11761;SDS011;5938;47.098;15.474;2023-02-11T02:03:22;16.57;;;9.37;;
11761;SDS011;5938;47.098;15.474;2023-02-11T02:07:28;19.60;;;10.00;;
11761;SDS011;5938;47.098;15.474;2023-02-11T02:11:35;20.17;;;10.33;;
11761;SDS011;5938;47.098;15.474;2023-02-11T02:15:40;19.57;;;8.20;;
11761;SDS011;5938;47.098;15.474;2023-02-11T02:29:12;17.80;;;11.43;;
11761;SDS011;5938;47.098;15.474;2023-02-11T02:33:33;22.90;;;10.17;;
11761;SDS011;5938;47.098;15.474;2023-02-11T02:37:45;18.50;;;10.33;;
11761;SDS011;5938;47.098;15.474;2023-02-11T02:41:53;14.77;;;9.20;;
11761;SDS011;5938;47.098;15.474;2023-02-11T02:46:08;16.90;;;9.17;;
11761;SDS011;5938;47.098;15.474;2023-02-11T02:50:15;17.50;;;11.10;;
11761;SDS011;5938;47.098;15.474;2023-02-11T02:54:30;14.50;;;8.20;;
11761;SDS011;5938;47.098;15.474;2023-02-11T02:59:05;20.10;;;8.40;;
11761;SDS011;5938;47.098;15.474;2023-02-11T03:03:21;22.87;;;9.77;;
11761;SDS011;5938;47.098;15.474;2023-02-11T03:07:34;11.97;;;7.50;;
11761;SDS011;5938;47.098;15.474;2023-02-11T03:11:42;14.97;;;7.73;;
11761;SDS011;5938;47.098;15.474;2023-02-11T03:15:47;12.20;;;7.30;;
11761;SDS011;5938;47.098;15.474;2023-02-11T03:19:54;15.07;;;8.30;;
11761;SDS011;5938;47.098;15.474;2023-02-11T03:24:02;12.90;;;7.30;;
11761;SDS011;5938;47.098;15.474;2023-02-11T03:28:11;12.40;;;7.67;;
11761;SDS011;5938;47.098;15.474;2023-02-11T03:32:19;16.73;;;7.27;;
11761;SDS011;5938;47.098;15.474;2023-02-11T03:36:28;15.50;;;6.87;;
11761;SDS011;5938;47.098;15.474;2023-02-11T03:40:39;14.83;;;7.10;;
11761;SDS011;5938;47.098;15.474;2023-02-11T03:44:47;8.10;;;5.70;;
11761;SDS011;5938;47.098;15.474;2023-02-11T03:48:54;9.40;;;6.40;;
11761;SDS011;5938;47.098;15.474;2023-02-11T03:53:03;18.23;;;8.17;;
11761;SDS011;5938;47.098;15.474;2023-02-11T03:57:08;11.70;;;6.47;;
11761;SDS011;5938;47.098;15.474;2023-02-11T04:01:12;12.20;;;7.10;;
11761;SDS011;5938;47.098;15.474;2023-02-11T04:05:15;16.60;;;8.43;;
11761;SDS011;5938;47.098;15.474;2023-02-11T04:09:19;17.13;;;7.77;;
11761;SDS011;5938;47.098;15.474;2023-02-11T04:13:24;12.10;;;6.50;;
11761;SDS011;5938;47.098;15.474;2023-02-11T04:17:27;9.70;;;6.60;;
11761;SDS011;5938;47.098;15.474;2023-02-11T04:21:30;10.37;;;6.80;;
11761;SDS011;5938;47.098;15.474;2023-02-11T04:25:34;13.83;;;8.50;;
11761;SDS011;5938;47.098;15.474;2023-02-11T04:29:38;16.50;;;6.77;;
11761;SDS011;5938;47.098;15.474;2023-02-11T04:33:42;10.47;;;7.57;;
11761;SDS011;5938;47.098;15.474;2023-02-11T04:37:45;18.73;;;8.20;;
11761;SDS011;5938;47.098;15.474;2023-02-11T04:41:48;10.10;;;6.43;;
11761;SDS011;5938;47.098;15.474;2023-02-11T04:45:56;12.10;;;6.83;;
11761;SDS011;5938;47.098;15.474;2023-02-11T04:50:00;14.20;;;6.10;;
11761;SDS011;5938;47.098;15.474;2023-02-11T04:54:03;9.67;;;6.83;;
11761;SDS011;5938;47.098;15.474;2023-02-11T04:58:07;14.40;;;7.33;;
11761;SDS011;5938;47.098;15.474;2023-02-11T05:02:12;14.53;;;6.80;;
11761;SDS011;5938;47.098;15.474;2023-02-11T05:06:15;10.53;;;6.57;;
11761;SDS011;5938;47.098;15.474;2023-02-11T05:10:19;15.57;;;6.53;;
11761;SDS011;5938;47.098;15.474;2023-02-11T05:14:22;13.17;;;7.80;;
11761;SDS011;5938;47.098;15.474;2023-02-11T05:18:28;14.27;;;8.70;;
11761;SDS011;5938;47.098;15.474;2023-02-11T05:22:31;12.23;;;7.13;;
11761;SDS011;5938;47.098;15.474;2023-02-11T05:26:35;10.63;;;7.17;;
11761;SDS011;5938;47.098;15.474;2023-02-11T05:30:38;16.33;;;7.43;;
11761;SDS011;5938;47.098;15.474;2023-02-11T05:34:43;11.40;;;8.30;;
11761;SDS011;5938;47.098;15.474;2023-02-11T05:38:46;13.47;;;7.63;;
11761;SDS011;5938;47.098;15.474;2023-02-11T05:42:51;19.37;;;9.47;;
11761;SDS011;5938;47.098;15.474;2023-02-11T05:46:54;10.50;;;6.43;;
11761;SDS011;5938;47.098;15.474;2023-02-11T05:50:59;15.80;;;9.07;;
11761;SDS011;5938;47.098;15.474;2023-02-11T05:55:03;17.10;;;7.80;;
11761;SDS011;5938;47.098;15.474;2023-02-11T05:59:06;15.30;;;7.10;;
11761;SDS011;5938;47.098;15.474;2023-02-11T06:03:10;13.77;;;6.03;;
11761;SDS011;5938;47.098;15.474;2023-02-11T06:07:14;13.50;;;8.43;;
11761;SDS011;5938;47.098;15.474;2023-02-11T06:11:20;12.10;;;6.43;;
11761;SDS011;5938;47.098;15.474;2023-02-11T06:15:23;14.33;;;7.80;;
11761;SDS011;5938;47.098;15.474;2023-02-11T06:19:27;16.60;;;8.47;;
11761;SDS011;5938;47.098;15.474;2023-02-11T06:23:32;18.23;;;8.17;;
11761;SDS011;5938;47.098;15.474;2023-02-11T06:27:36;13.90;;;7.07;;
11761;SDS011;5938;47.098;15.474;2023-02-11T06:31:40;16.90;;;7.30;;
11761;SDS011;5938;47.098;15.474;2023-02-11T06:35:44;14.77;;;7.57;;
11761;SDS011;5938;47.098;15.474;2023-02-11T06:39:48;12.70;;;8.20;;
11761;SDS011;5938;47.098;15.474;2023-02-11T06:43:52;16.00;;;8.30;;
11761;SDS011;5938;47.098;15.474;2023-02-11T06:47:57;16.50;;;11.17;;
11761;SDS011;5938;47.098;15.474;2023-02-11T06:52:00;15.23;;;10.73;;
11761;SDS011;5938;47.098;15.474;2023-02-11T06:56:06;17.10;;;9.63;;
11761;SDS011;5938;47.098;15.474;2023-02-11T07:00:12;14.67;;;9.40;;
11761;SDS011;5938;47.098;15.474;2023-02-11T07:04:16;19.97;;;10.73;;
11761;SDS011;5938;47.098;15.474;2023-02-11T07:08:19;29.23;;;11.00;;
11761;SDS011;5938;47.098;15.474;2023-02-11T07:12:24;32.90;;;15.50;;
11761;SDS011;5938;47.098;15.474;2023-02-11T07:16:27;26.77;;;16.20;;
11761;SDS011;5938;47.098;15.474;2023-02-11T07:20:31;23.93;;;14.47;;
11761;SDS011;5938;47.098;15.474;2023-02-11T07:24:35;20.37;;;14.03;;
11761;SDS011;5938;47.098;15.474;2023-02-11T07:28:39;19.93;;;10.67;;
11761;SDS011;5938;47.098;15.474;2023-02-11T07:32:43;18.23;;;11.40;;
11761;SDS011;5938;47.098;15.474;2023-02-11T07:36:47;18.27;;;11.93;;
11761;SDS011;5938;47.098;15.474;2023-02-11T07:40:50;14.87;;;11.43;;
11761;SDS011;5938;47.098;15.474;2023-02-11T07:44:55;20.13;;;14.00;;
11761;SDS011;5938;47.098;15.474;2023-02-11T07:49:06;17.83;;;11.23;;
11761;SDS011;5938;47.098;15.474;2023-02-11T07:53:10;15.87;;;11.97;;
11761;SDS011;5938;47.098;15.474;2023-02-11T07:57:13;16.73;;;12.53;;
11761;SDS011;5938;47.098;15.474;2023-02-11T08:01:19;18.23;;;13.27;;
11761;SDS011;5938;47.098;15.474;2023-02-11T08:05:26;19.50;;;13.57;;
11761;SDS011;5938;47.098;15.474;2023-02-11T08:09:30;26.50;;;17.37;;
11761;SDS011;5938;47.098;15.474;2023-02-11T08:13:35;19.80;;;14.30;;
11761;SDS011;5938;47.098;15.474;2023-02-11T08:17:40;31.77;;;19.47;;
11761;SDS011;5938;47.098;15.474;2023-02-11T08:21:43;33.03;;;20.23;;
11761;SDS011;5938;47.098;15.474;2023-02-11T08:25:47;29.77;;;18.03;;
11761;SDS011;5938;47.098;15.474;2023-02-11T08:38:36;19.00;;;12.83;;
11761;SDS011;5938;47.098;15.474;2023-02-11T08:42:40;13.77;;;10.10;;
11761;SDS011;5938;47.098;15.474;2023-02-11T08:46:43;18.90;;;11.07;;
11761;SDS011;5938;47.098;15.474;2023-02-11T08:50:47;24.70;;;14.57;;
11761;SDS011;5938;47.098;15.474;2023-02-11T08:54:53;16.60;;;12.43;;
11761;SDS011;5938;47.098;15.474;2023-02-11T08:58:57;20.00;;;12.03;;
11761;SDS011;5938;47.098;15.474;2023-02-11T09:03:01;16.07;;;11.47;;
11761;SDS011;5938;47.098;15.474;2023-02-11T09:07:05;15.37;;;10.83;;
11761;SDS011;5938;47.098;15.474;2023-02-11T09:11:09;13.77;;;11.97;;
11761;SDS011;5938;47.098;15.474;2023-02-11T09:15:13;15.37;;;11.27;;
11761;SDS011;5938;47.098;15.474;2023-02-11T09:19:17;15.23;;;11.37;;
11761;SDS011;5938;47.098;15.474;2023-02-11T09:23:21;16.40;;;11.00;;
11761;SDS011;5938;47.098;15.474;2023-02-11T09:27:30;12.93;;;8.40;;
11761;SDS011;5938;47.098;15.474;2023-02-11T09:31:35;10.37;;;8.00;;
11761;SDS011;5938;47.098;15.474;2023-02-11T09:35:39;10.17;;;8.20;;
11761;SDS011;5938;47.098;15.474;2023-02-11T09:39:42;12.73;;;8.83;;
11761;SDS011;5938;47.098;15.474;2023-02-11T09:43:49;13.20;;;10.63;;
11761;SDS011;5938;47.098;15.474;2023-02-11T09:47:56;15.20;;;12.37;;
11761;SDS011;5938;47.098;15.474;2023-02-11T09:52:07;14.63;;;11.83;;
11761;SDS011;5938;47.098;15.474;2023-02-11T09:56:18;22.70;;;16.93;;
11761;SDS011;5938;47.098;15.474;2023-02-11T10:00:25;21.57;;;17.70;;
11761;SDS011;5938;47.098;15.474;2023-02-11T10:04:44;16.57;;;12.63;;
11761;SDS011;5938;47.098;15.474;2023-02-11T10:09:17;20.27;;;13.60;;
11761;SDS011;5938;47.098;15.474;2023-02-11T10:13:43;20.30;;;14.50;;
11761;SDS011;5938;47.098;15.474;2023-02-11T10:17:58;18.07;;;14.67;;
11761;SDS011;5938;47.098;15.474;2023-02-11T10:22:13;22.70;;;16.63;;
11761;SDS011;5938;47.098;15.474;2023-02-11T10:26:21;22.30;;;16.30;;
11761;SDS011;5938;47.098;15.474;2023-02-11T10:30:27;25.17;;;18.07;;
11761;SDS011;5938;47.098;15.474;2023-02-11T10:34:34;24.27;;;17.67;;
11761;SDS011;5938;47.098;15.474;2023-02-11T10:38:43;25.63;;;19.27;;
11761;SDS011;5938;47.098;15.474;2023-02-11T10:42:48;29.40;;;20.73;;
11761;SDS011;5938;47.098;15.474;2023-02-11T10:46:55;31.37;;;17.63;;
11761;SDS011;5938;47.098;15.474;2023-02-11T10:51:07;23.33;;;17.57;;
11761;SDS011;5938;47.098;15.474;2023-02-11T10:55:17;24.27;;;16.10;;
11761;SDS011;5938;47.098;15.474;2023-02-11T10:59:23;21.23;;;16.27;;
11761;SDS011;5938;47.098;15.474;2023-02-11T11:03:32;19.17;;;15.27;;
11761;SDS011;5938;47.098;15.474;2023-02-11T11:07:51;16.23;;;13.37;;
11761;SDS011;5938;47.098;15.474;2023-02-11T11:11:56;15.83;;;13.53;;
11761;SDS011;5938;47.098;15.474;2023-02-11T11:16:17;15.57;;;13.27;;
11761;SDS011;5938;47.098;15.474;2023-02-11T11:20:24;19.73;;;14.30;;
11761;SDS011;5938;47.098;15.474;2023-02-11T11:24:31;21.10;;;14.37;;
11761;SDS011;5938;47.098;15.474;2023-02-11T11:28:40;16.33;;;13.50;;
11761;SDS011;5938;47.098;15.474;2023-02-11T11:32:57;18.40;;;13.37;;
11761;SDS011;5938;47.098;15.474;2023-02-11T11:37:08;21.40;;;11.60;;
11761;SDS011;5938;47.098;15.474;2023-02-11T11:41:18;28.53;;;11.90;;
11761;SDS011;5938;47.098;15.474;2023-02-11T11:45:28;13.77;;;11.23;;
11761;SDS011;5938;47.098;15.474;2023-02-11T11:49:32;17.20;;;12.60;;
11761;SDS011;5938;47.098;15.474;2023-02-11T11:53:40;13.57;;;11.40;;
11761;SDS011;5938;47.098;15.474;2023-02-11T11:57:51;13.50;;;11.53;;
11761;SDS011;5938;47.098;15.474;2023-02-11T12:02:00;13.40;;;12.00;;
11761;SDS011;5938;47.098;15.474;2023-02-11T12:06:27;14.90;;;12.70;;
11761;SDS011;5938;47.098;15.474;2023-02-11T12:10:43;15.83;;;12.67;;
11761;SDS011;5938;47.098;15.474;2023-02-11T12:14:58;18.60;;;13.27;;
11761;SDS011;5938;47.098;15.474;2023-02-11T12:19:17;13.70;;;12.33;;
11761;SDS011;5938;47.098;15.474;2023-02-11T12:23:38;15.33;;;12.87;;
11761;SDS011;5938;47.098;15.474;2023-02-11T12:27:59;12.63;;;11.33;;
11761;SDS011;5938;47.098;15.474;2023-02-11T12:32:25;15.33;;;13.40;;
11761;SDS011;5938;47.098;15.474;2023-02-11T12:36:41;21.73;;;18.43;;
11761;SDS011;5938;47.098;15.474;2023-02-11T12:40:58;15.17;;;13.00;;
11761;SDS011;5938;47.098;15.474;2023-02-11T12:45:19;17.17;;;13.40;;
11761;SDS011;5938;47.098;15.474;2023-02-11T12:49:40;14.00;;;10.70;;
11761;SDS011;5938;47.098;15.474;2023-02-11T12:58:22;13.70;;;11.33;;
11761;SDS011;5938;47.098;15.474;2023-02-11T13:02:46;10.10;;;9.10;;
11761;SDS011;5938;47.098;15.474;2023-02-11T13:06:58;11.27;;;9.63;;
11761;SDS011;5938;47.098;15.474;2023-02-11T13:11:07;11.13;;;10.03;;
11761;SDS011;5938;47.098;15.474;2023-02-11T13:15:16;13.13;;;8.77;;
11761;SDS011;5938;47.098;15.474;2023-02-11T13:19:21;11.83;;;10.33;;
11761;SDS011;5938;47.098;15.474;2023-02-11T13:23:33;10.37;;;9.00;;
11761;SDS011;5938;47.098;15.474;2023-02-11T13:27:46;11.67;;;9.90;;
11761;SDS011;5938;47.098;15.474;2023-02-11T13:32:06;12.17;;;9.67;;
11761;SDS011;5938;47.098;15.474;2023-02-11T13:36:16;9.30;;;8.40;;
11761;SDS011;5938;47.098;15.474;2023-02-11T13:40:26;11.30;;;9.50;;
11761;SDS011;5938;47.098;15.474;2023-02-11T13:44:35;15.87;;;7.07;;
11761;SDS011;5938;47.098;15.474;2023-02-11T13:48:44;8.60;;;7.80;;
11761;SDS011;5938;47.098;15.474;2023-02-11T13:52:55;10.70;;;8.13;;
11761;SDS011;5938;47.098;15.474;2023-02-11T14:01:39;9.63;;;7.40;;
11761;SDS011;5938;47.098;15.474;2023-02-11T14:06:35;15.70;;;9.13;;
11761;SDS011;5938;47.098;15.474;2023-02-11T14:11:02;12.60;;;9.30;;
11761;SDS011;5938;47.098;15.474;2023-02-11T14:15:27;10.87;;;8.30;;
11761;SDS011;5938;47.098;15.474;2023-02-11T14:19:41;11.27;;;9.10;;
11761;SDS011;5938;47.098;15.474;2023-02-11T14:23:45;13.60;;;8.20;;
11761;SDS011;5938;47.098;15.474;2023-02-11T14:27:51;10.83;;;7.20;;
11761;SDS011;5938;47.098;15.474;2023-02-11T14:32:02;11.23;;;8.47;;
11761;SDS011;5938;47.098;15.474;2023-02-11T14:36:18;9.53;;;8.43;;
11761;SDS011;5938;47.098;15.474;2023-02-11T14:40:48;12.83;;;8.90;;
11761;SDS011;5938;47.098;15.474;2023-02-11T14:45:02;10.17;;;7.20;;
11761;SDS011;5938;47.098;15.474;2023-02-11T14:49:15;9.30;;;7.47;;
11761;SDS011;5938;47.098;15.474;2023-02-11T14:53:29;8.77;;;7.17;;
11761;SDS011;5938;47.098;15.474;2023-02-11T14:57:35;10.80;;;6.97;;
11761;SDS011;5938;47.098;15.474;2023-02-11T15:01:40;13.87;;;6.80;;
11761;SDS011;5938;47.098;15.474;2023-02-11T15:05:53;8.50;;;5.73;;
11761;SDS011;5938;47.098;15.474;2023-02-11T15:10:01;9.90;;;7.63;;
11761;SDS011;5938;47.098;15.474;2023-02-11T15:14:06;10.87;;;7.60;;
11761;SDS011;5938;47.098;15.474;2023-02-11T15:18:15;7.67;;;6.90;;
11761;SDS011;5938;47.098;15.474;2023-02-11T15:22:25;5.40;;;4.90;;
11761;SDS011;5938;47.098;15.474;2023-02-11T15:26:31;8.90;;;6.40;;
11761;SDS011;5938;47.098;15.474;2023-02-11T15:30:35;9.17;;;6.27;;
11761;SDS011;5938;47.098;15.474;2023-02-11T15:34:39;8.70;;;6.03;;
11761;SDS011;5938;47.098;15.474;2023-02-11T15:38:47;11.43;;;6.37;;
11761;SDS011;5938;47.098;15.474;2023-02-11T15:43:22;6.13;;;4.70;;
11761;SDS011;5938;47.098;15.474;2023-02-11T15:47:27;9.63;;;6.97;;
11761;SDS011;5938;47.098;15.474;2023-02-11T15:51:33;6.73;;;5.30;;
11761;SDS011;5938;47.098;15.474;2023-02-11T15:55:42;10.67;;;6.27;;
11761;SDS011;5938;47.098;15.474;2023-02-11T15:59:50;8.00;;;5.60;;
11761;SDS011;5938;47.098;15.474;2023-02-11T16:03:57;9.17;;;6.30;;
11761;SDS011;5938;47.098;15.474;2023-02-11T16:08:11;10.07;;;5.57;;
11761;SDS011;5938;47.098;15.474;2023-02-11T16:12:25;7.70;;;5.27;;
11761;SDS011;5938;47.098;15.474;2023-02-11T16:16:30;7.90;;;5.90;;
11761;SDS011;5938;47.098;15.474;2023-02-11T16:20:37;8.00;;;5.37;;
11761;SDS011;5938;47.098;15.474;2023-02-11T16:24:44;15.27;;;6.57;;
11761;SDS011;5938;47.098;15.474;2023-02-11T16:28:53;12.83;;;6.73;;
11761;SDS011;5938;47.098;15.474;2023-02-11T16:33:10;7.43;;;5.93;;
11761;SDS011;5938;47.098;15.474;2023-02-11T16:37:14;11.90;;;6.87;;
11761;SDS011;5938;47.098;15.474;2023-02-11T16:41:23;9.83;;;5.47;;
11761;SDS011;5938;47.098;15.474;2023-02-11T16:45:28;11.20;;;6.20;;
11761;SDS011;5938;47.098;15.474;2023-02-11T16:49:35;10.13;;;6.80;;
11761;SDS011;5938;47.098;15.474;2023-02-11T16:53:43;10.33;;;6.37;;
11761;SDS011;5938;47.098;15.474;2023-02-11T16:57:48;12.20;;;8.07;;
11761;SDS011;5938;47.098;15.474;2023-02-11T17:01:54;11.73;;;8.13;;
11761;SDS011;5938;47.098;15.474;2023-02-11T17:06:08;13.90;;;7.13;;
11761;SDS011;5938;47.098;15.474;2023-02-11T17:10:15;11.80;;;6.97;;
11761;SDS011;5938;47.098;15.474;2023-02-11T17:14:23;8.23;;;6.60;;
11761;SDS011;5938;47.098;15.474;2023-02-11T17:18:28;12.53;;;6.60;;
11761;SDS011;5938;47.098;15.474;2023-02-11T17:22:35;7.47;;;6.37;;
11761;SDS011;5938;47.098;15.474;2023-02-11T17:26:40;12.37;;;6.63;;
11761;SDS011;5938;47.098;15.474;2023-02-11T17:31:07;13.33;;;7.87;;
11761;SDS011;5938;47.098;15.474;2023-02-11T17:35:18;18.77;;;9.00;;
11761;SDS011;5938;47.098;15.474;2023-02-11T17:39:24;20.03;;;8.37;;
11761;SDS011;5938;47.098;15.474;2023-02-11T17:43:31;10.70;;;8.23;;
11761;SDS011;5938;47.098;15.474;2023-02-11T17:47:36;13.13;;;8.47;;
11761;SDS011;5938;47.098;15.474;2023-02-11T17:51:43;11.40;;;8.13;;
11761;SDS011;5938;47.098;15.474;2023-02-11T17:55:49;16.70;;;9.77;;
11761;SDS011;5938;47.098;15.474;2023-02-11T17:59:54;26.63;;;14.67;;
11761;SDS011;5938;47.098;15.474;2023-02-11T18:04:08;18.83;;;11.80;;
11761;SDS011;5938;47.098;15.474;2023-02-11T18:08:16;21.47;;;12.67;;
11761;SDS011;5938;47.098;15.474;2023-02-11T18:12:21;16.70;;;10.37;;
11761;SDS011;5938;47.098;15.474;2023-02-11T18:16:28;19.00;;;11.23;;
11761;SDS011;5938;47.098;15.474;2023-02-11T18:20:36;16.60;;;11.40;;
11761;SDS011;5938;47.098;15.474;2023-02-11T18:24:45;16.57;;;11.20;;
11761;SDS011;5938;47.098;15.474;2023-02-11T18:28:56;15.27;;;10.93;;
11761;SDS011;5938;47.098;15.474;2023-02-11T18:33:02;16.87;;;9.30;;
11761;SDS011;5938;47.098;15.474;2023-02-11T18:37:10;17.27;;;11.63;;
11761;SDS011;5938;47.098;15.474;2023-02-11T18:41:17;15.33;;;11.13;;
11761;SDS011;5938;47.098;15.474;2023-02-11T18:45:23;13.13;;;10.50;;
11761;SDS011;5938;47.098;15.474;2023-02-11T18:49:29;14.43;;;10.30;;
11761;SDS011;5938;47.098;15.474;2023-02-11T18:53:37;19.00;;;11.37;;
11761;SDS011;5938;47.098;15.474;2023-02-11T18:57:45;21.00;;;10.80;;
11761;SDS011;5938;47.098;15.474;2023-02-11T19:02:09;17.57;;;11.10;;
11761;SDS011;5938;47.098;15.474;2023-02-11T19:06:20;18.20;;;11.73;;
11761;SDS011;5938;47.098;15.474;2023-02-11T19:10:29;19.77;;;10.80;;
11761;SDS011;5938;47.098;15.474;2023-02-11T19:14:39;15.33;;;10.80;;
11761;SDS011;5938;47.098;15.474;2023-02-11T19:18:58;16.40;;;10.17;;
11761;SDS011;5938;47.098;15.474;2023-02-11T19:23:04;16.67;;;11.27;;
11761;SDS011;5938;47.098;15.474;2023-02-11T19:27:13;15.50;;;10.10;;
11761;SDS011;5938;47.098;15.474;2023-02-11T19:35:43;18.20;;;11.10;;
11761;SDS011;5938;47.098;15.474;2023-02-11T19:39:51;17.87;;;11.20;;
11761;SDS011;5938;47.098;15.474;2023-02-11T19:43:58;19.77;;;12.37;;
11761;SDS011;5938;47.098;15.474;2023-02-11T19:48:09;16.23;;;12.20;;
11761;SDS011;5938;47.098;15.474;2023-02-11T19:52:23;18.17;;;12.17;;
11761;SDS011;5938;47.098;15.474;2023-02-11T19:56:42;17.03;;;12.37;;
11761;SDS011;5938;47.098;15.474;2023-02-11T20:00:52;20.00;;;12.37;;
11761;SDS011;5938;47.098;15.474;2023-02-11T20:05:07;18.47;;;12.77;;
11761;SDS011;5938;47.098;15.474;2023-02-11T20:09:13;26.03;;;13.33;;
11761;SDS011;5938;47.098;15.474;2023-02-11T20:13:24;23.10;;;14.10;;
11761;SDS011;5938;47.098;15.474;2023-02-11T20:17:35;20.20;;;12.57;;
11761;SDS011;5938;47.098;15.474;2023-02-11T20:21:44;16.73;;;11.27;;
11761;SDS011;5938;47.098;15.474;2023-02-11T20:25:55;17.10;;;11.50;;
11761;SDS011;5938;47.098;15.474;2023-02-11T20:30:14;15.20;;;10.33;;
11761;SDS011;5938;47.098;15.474;2023-02-11T20:34:22;13.40;;;10.77;;
11761;SDS011;5938;47.098;15.474;2023-02-11T20:38:32;18.90;;;11.67;;
11761;SDS011;5938;47.098;15.474;2023-02-11T20:42:40;16.53;;;13.53;;
11761;SDS011;5938;47.098;15.474;2023-02-11T20:46:47;28.57;;;15.57;;
11761;SDS011;5938;47.098;15.474;2023-02-11T20:50:55;20.70;;;12.53;;
11761;SDS011;5938;47.098;15.474;2023-02-11T20:55:07;21.43;;;12.27;;
11761;SDS011;5938;47.098;15.474;2023-02-11T20:59:13;35.73;;;16.33;;
11761;SDS011;5938;47.098;15.474;2023-02-11T21:03:20;24.67;;;14.50;;
11761;SDS011;5938;47.098;15.474;2023-02-11T21:07:25;22.33;;;13.37;;
11761;SDS011;5938;47.098;15.474;2023-02-11T21:11:39;30.60;;;14.70;;
11761;SDS011;5938;47.098;15.474;2023-02-11T21:15:47;33.47;;;16.80;;
11761;SDS011;5938;47.098;15.474;2023-02-11T21:19:57;18.50;;;12.53;;
11761;SDS011;5938;47.098;15.474;2023-02-11T21:24:02;21.67;;;10.77;;
11761;SDS011;5938;47.098;15.474;2023-02-11T21:28:08;16.57;;;11.67;;
11761;SDS011;5938;47.098;15.474;2023-02-11T21:32:13;15.27;;;11.10;;
11761;SDS011;5938;47.098;15.474;2023-02-11T21:36:19;21.13;;;11.77;;
11761;SDS011;5938;47.098;15.474;2023-02-11T21:40:25;16.40;;;11.17;;
11761;SDS011;5938;47.098;15.474;2023-02-11T21:48:42;17.73;;;12.07;;
11761;SDS011;5938;47.098;15.474;2023-02-11T21:52:47;18.17;;;11.30;;
11761;SDS011;5938;47.098;15.474;2023-02-11T21:56:54;17.40;;;11.50;;
11761;SDS011;5938;47.098;15.474;2023-02-11T22:01:07;14.00;;;10.00;;
11761;SDS011;5938;47.098;15.474;2023-02-11T22:05:14;14.33;;;10.37;;
11761;SDS011;5938;47.098;15.474;2023-02-11T22:09:19;13.13;;;9.30;;
11761;SDS011;5938;47.098;15.474;2023-02-11T22:13:22;13.90;;;9.33;;
11761;SDS011;5938;47.098;15.474;2023-02-11T22:17:29;15.57;;;9.33;;
11761;SDS011;5938;47.098;15.474;2023-02-11T22:21:32;10.47;;;8.00;;
11761;SDS011;5938;47.098;15.474;2023-02-11T22:25:42;16.57;;;9.40;;
11761;SDS011;5938;47.098;15.474;2023-02-11T22:29:46;16.17;;;9.23;;
11761;SDS011;5938;47.098;15.474;2023-02-11T22:33:51;10.67;;;8.83;;
11761;SDS011;5938;47.098;15.474;2023-02-11T22:37:57;11.20;;;9.03;;
11761;SDS011;5938;47.098;15.474;2023-02-11T22:42:01;12.90;;;9.27;;
11761;SDS011;5938;47.098;15.474;2023-02-11T22:46:05;15.37;;;9.83;;
11761;SDS011;5938;47.098;15.474;2023-02-11T22:50:10;19.90;;;13.10;;
11761;SDS011;5938;47.098;15.474;2023-02-11T22:54:14;18.60;;;13.00;;
11761;SDS011;5938;47.098;15.474;2023-02-11T22:58:19;19.97;;;12.77;;
11761;SDS011;5938;47.098;15.474;2023-02-11T23:02:22;14.60;;;10.57;;
11761;SDS011;5938;47.098;15.474;2023-02-11T23:06:27;13.70;;;9.40;;
11761;SDS011;5938;47.098;15.474;2023-02-11T23:10:32;12.93;;;9.30;;
11761;SDS011;5938;47.098;15.474;2023-02-11T23:14:36;16.40;;;10.47;;
11761;SDS011;5938;47.098;15.474;2023-02-11T23:18:40;11.80;;;9.53;;
11761;SDS011;5938;47.098;15.474;2023-02-11T23:22:48;25.10;;;12.93;;
11761;SDS011;5938;47.098;15.474;2023-02-11T23:26:51;34.67;;;17.30;;
11761;SDS011;5938;47.098;15.474;2023-02-11T23:30:57;21.23;;;12.10;;
11761;SDS011;5938;47.098;15.474;2023-02-11T23:35:00;24.93;;;11.67;;
11761;SDS011;5938;47.098;15.474;2023-02-11T23:43:15;14.40;;;10.87;;
11761;SDS011;5938;47.098;15.474;2023-02-11T23:47:18;14.40;;;9.50;;
11761;SDS011;5938;47.098;15.474;2023-02-11T23:51:21;20.23;;;10.83;;
11761;SDS011;5938;47.098;15.474;2023-02-11T23:55:32;16.93;;;10.83;;
11761;SDS011;5938;47.098;15.474;2023-02-11T23:59:40;16.67;;;9.70;;
